Antonino, KS

12:37 PM CDT on July 10, 2014 (GMT -0500)
Rural Ellis Co. (KKSHAYS15) Elev 2077 ft | 38.81 °N, 99.37 °W | Change Station
Active Advisory: Areal Flood Warning Active Notice: Local Storm Report

Current weather conditions updated 8 minutes ago

Clear
Clear
82.0 °F
Feels Like 86 °F
N
4.7
Wind Variable Wind from SSE

Today is forecast to be nearly the same temperature as yesterday.

Today
High -- | Low -- °F
--% Chance of Precip.
Yesterday
High -- | Low -- °F
Precip. -- in
6:21 AM 9:04 PM
Waxing Gibbous, 96% visible
Pressure 30.01 in
Visibility 10.0 miles
Clouds Clear
Heat Index 86 °F
Dew Point 70 °F
Humidity 66%
Rainfall 1.31 in
Snow Depth Not available.
UV 11 out of 12
Pollen 3.40 out of 12
Air Quality Not available.
Flu Activity No Activity
METAR KHYS 101715Z AUTO 17014KT 10SM CLR 27/18 A3001 RMK AO1

More Conditions Fewer Conditions

Pressure 30.01 in
Visibility 10.0 miles
Clouds Clear
Heat Index 86 °F
Dew Point 70 °F
Humidity 66%
Rainfall 1.31 in
Snow Depth Not available.
UV 11 out of 12
Pollen 3.40 out of 12
Air Quality Not available.
Flu Activity No Activity
METAR KHYS 101715Z AUTO 17014KT 10SM CLR 27/18 A3001 RMK AO1

More Conditions Fewer Conditions

10-Day Weather Forecast

Almanac

Astronomy

Jul. 10, 2014 Rise Set
Actual Time 6:21 AM CDT 9:04 PM CDT
Civil Twilight 5:49 AM CDT 9:35 PM CDT
Nautical Twilight 5:10 AM CDT 10:14 PM CDT
Astronomical Twilight 4:26 AM CDT 10:59 PM CDT
Moon 7:19 PM CDT 4:33 AM CDT
Length of Visible Light 15h 45m
Length of Day
14h 42m
Tomorrow will be 1m 5s shorter.
Waxing Gibbous, 96% of the Moon is Illuminated
Today
Waxing Gibbous
Jul 12
Full
Jul 18
Last Quarter
Jul 26
New
Aug 3
First Quarter

Today's Extremes

State Highs State Lows

Community

WunderPhotos

Upload Photos

1,732,202 photos uploaded!

WunderBlogs® & News

Nearby

Snow Depth

Station Depth Elevation
No new snow has been reported.

Earthquake Activity

City Distance Mag. Time & Date
No recent earthquake activity has been reported nearby.
Minimum magnitude displayed is 2.5.

Coastal Water Temperatures

Place Temperature
No Stations Reporting

Nearby Weather Stations

Station Location Temp. Heat Index Dew Point Humidity Wind Precip. Elev Updated Type
Rural Ellis Co., Hays, KS 82.0 °F 86 °F 70 °F 66% SSE  at  4.7 mph - / hr 2077 ft 12:28 PM CDT Normal
MesoWest YOCEME , Hays, KS 76 °F 74 °F - - North  at  - 0.00 in / hr 2047 ft 10:45 AM CDT MADIS
MesoWest WALKER , Walker, KS 77 °F 75 °F - - North  at  - 0.00 in / hr 1941 ft 10:00 AM CDT MADIS
Gorham Tele-Com, Gorham, KS 85.1 °F 89 °F 68 °F 57% NNE  at  8.5 mph 0.00 in / hr 1919 ft 12:36 PM CDT Rapid Fire

Show More Stations Show Fewer Stations